Brookville, Pennsylvania
Current Conditions -  °F | °C
As of 1:53 PM on Thursday 23 Oct 2014 (Local Time) from KDUJ Reporting Station
Clear Clear  
Wind Chill: 14°   Ceiling: Unl
Heat Index: 14°   Visibility: 10mi
Dew Point:   Wind: 16mph
Humidity: 49%   Direction: 330°NNW
Pressure: 30"   Gusts: 30mph
Location:  41.16°N, 79.08°W
Report Text: KDUJ 231753Z AUTO 33014G26KT 10SM CLR 14/03 A3000 RMK AO2 PK WND 32026/1747 SLP160 T01390033 10139 20061 58017
Loading
Personal Weather Stations






























Interactive Weather Map New forecast layout! Learn more

10-Day Weather Forecast

Advertisements
Track Severe Weather on mobile